Time;durP1;ratioP1;P1;durP2;ratioP2;P2;SDS_P1;SDS_P2;PMS_P1;PMS_P2;Temp;Humidity;BMP_temperature;BMP_pressure;BME280_temperature;BME280_humidity;BME280_pressure;Samples;Min_cycle;Max_cycle;Signal;HPM_P1;HPM_P2
2022/10/18 00:01:29;;;;;;;4.50;4.10;;;;;;;14.43;100.00;101119.50;5072172;28;20201;-75
2022/10/18 00:03:54;;;;;;;5.37;4.40;;;;;;;14.44;100.00;101129.06;5078424;28;20233;-74
2022/10/18 00:06:19;;;;;;;5.07;4.27;;;;;;;14.45;100.00;101133.38;5071411;28;20186;-75
2022/10/18 00:08:45;;;;;;;5.20;4.70;;;;;;;14.47;100.00;101131.63;5071676;28;20209;-75
2022/10/18 00:11:10;;;;;;;4.37;3.97;;;;;;;14.49;100.00;101126.38;5070466;28;20221;-74
2022/10/18 00:13:36;;;;;;;7.73;4.50;;;;;;;14.51;100.00;101121.19;5076795;28;20339;-74
2022/10/18 00:16:03;;;;;;;5.47;4.57;;;;;;;14.54;100.00;101123.72;5080800;28;20203;-75
2022/10/18 00:18:28;;;;;;;5.00;4.50;;;;;;;14.56;100.00;101133.28;5080200;28;20185;-75
2022/10/18 00:21:06;;;;;;;4.97;4.53;;;;;;;14.60;100.00;101131.47;5079961;28;20209;-75
2022/10/18 00:23:33;;;;;;;6.47;4.83;;;;;;;14.61;100.00;101126.25;5076158;28;20234;-75
2022/10/18 00:26:17;;;;;;;5.77;4.37;;;;;;;14.63;100.00;101127.09;5084364;28;20185;-75
2022/10/18 00:28:44;;;;;;;5.20;4.70;;;;;;;14.65;100.00;101132.28;5074376;28;20218;-75
2022/10/18 00:31:12;;;;;;;4.83;4.37;;;;;;;14.67;100.00;101134.88;5081303;28;20213;-75
2022/10/18 00:33:38;;;;;;;5.13;4.43;;;;;;;14.68;100.00;101129.66;5081616;28;20194;-74
2022/10/18 00:36:03;;;;;;;5.50;4.13;;;;;;;14.70;100.00;101127.06;5080737;28;20266;-75
2022/10/18 00:38:29;;;;;;;4.30;3.90;;;;;;;14.72;100.00;101128.75;5082233;28;20899;-75
2022/10/18 00:40:54;;;;;;;4.33;3.93;;;;;;;14.76;100.00;101130.44;5073466;28;20220;-75
2022/10/18 00:43:19;;;;;;;4.63;4.23;;;;;;;14.81;100.00;101126.91;5072500;28;20193;-75
2022/10/18 00:45:44;;;;;;;4.67;4.17;;;;;;;14.82;100.00;101126.03;5069189;28;20333;-74
2022/10/18 00:48:14;;;;;;;4.40;4.00;;;;;;;14.83;100.00;101123.41;5072291;28;20201;-74
2022/10/18 00:50:40;;;;;;;4.80;4.40;;;;;;;14.85;100.00;101121.66;5076669;28;20218;-74
2022/10/18 00:53:13;;;;;;;5.23;4.73;;;;;;;14.86;100.00;101133.78;5071611;28;20941;-74
2022/10/18 00:55:39;;;;;;;6.43;4.30;;;;;;;14.87;100.00;101121.63;5072593;28;20197;-74
2022/10/18 00:58:05;;;;;;;4.43;3.73;;;;;;;14.88;100.00;101119.00;5078075;28;20247;-74
2022/10/18 01:00:31;;;;;;;4.67;4.17;;;;;;;14.89;100.00;101128.53;5079735;28;20200;-74
2022/10/18 01:02:57;;;;;;;4.40;3.90;;;;;;;14.91;100.00;101137.19;5074969;28;20193;-74
2022/10/18 01:05:24;;;;;;;5.70;3.67;;;;;;;14.94;100.00;101133.69;5069400;28;20564;-75
2022/10/18 01:07:53;;;;;;;4.80;3.93;;;;;;;14.95;100.00;101127.59;5072059;28;20189;-74
2022/10/18 01:10:27;;;;;;;4.30;3.73;;;;;;;14.98;100.00;101129.28;5073205;28;20212;-75
2022/10/18 01:13:09;;;;;;;5.90;4.40;;;;;;;15.00;100.00;101130.97;5075855;28;20199;-75
2022/10/18 01:15:34;;;;;;;6.03;4.40;;;;;;;15.02;100.00;101118.78;5071807;28;20201;-74
2022/10/18 01:18:27;;;;;;;7.03;3.90;;;;;;;15.04;100.00;101127.47;5071195;28;20200;-74
2022/10/18 01:21:16;;;;;;;4.07;3.70;;;;;;;15.06;100.00;101122.22;5076002;28;20229;-74
2022/10/18 01:24:10;;;;;;;4.17;3.63;;;;;;;15.07;100.00;101122.22;5074815;28;20343;-74
2022/10/18 01:27:19;;;;;;;4.17;3.80;;;;;;;15.08;100.00;101110.91;5073712;28;20194;-75
2022/10/18 01:29:47;;;;;;;4.57;3.70;;;;;;;15.09;100.00;101110.03;5044935;28;20227;-75
2022/10/18 01:32:23;;;;;;;4.10;3.70;;;;;;;15.08;100.00;101110.91;5042450;28;20576;-74
2022/10/18 01:34:54;;;;;;;4.50;3.60;;;;;;;15.07;100.00;101110.91;5062002;28;20197;-74
2022/10/18 01:37:21;;;;;;;3.80;3.50;;;;;;;15.05;100.00;101107.47;5074643;28;20571;-74
2022/10/18 01:39:47;;;;;;;4.00;3.63;;;;;;;15.04;100.00;101113.56;5074740;28;20760;-74
2022/10/18 01:42:18;;;;;;;4.30;3.23;;;;;;;15.02;100.00;101107.53;5076157;28;20315;-74
2022/10/18 01:44:46;;;;;;;4.50;3.57;;;;;;;14.98;100.00;101104.06;5070193;28;20275;-75
2022/10/18 01:47:13;;;;;;;3.70;3.40;;;;;;;14.95;100.00;101106.75;5073186;28;20227;-74
2022/10/18 01:49:38;;;;;;;4.13;3.57;;;;;;;14.93;100.00;101100.69;5071684;28;20273;-73
2022/10/18 01:52:04;;;;;;;5.70;3.60;;;;;;;14.92;100.00;101102.41;5071244;28;20633;-75
2022/10/18 01:54:37;;;;;;;5.97;3.30;;;;;;;14.92;100.00;101093.75;5076132;28;20213;-74
2022/10/18 01:57:21;;;;;;;5.40;3.60;;;;;;;14.91;100.00;101099.84;5080311;28;20665;-74
2022/10/18 02:00:06;;;;;;;3.70;3.40;;;;;;;14.89;100.00;101092.06;5079656;28;20675;-74
2022/10/18 02:02:46;;;;;;;3.67;3.37;;;;;;;14.88;100.00;101095.56;5078389;28;20607;-74
2022/10/18 02:05:23;;;;;;;3.67;3.37;;;;;;;14.88;100.00;101095.56;5072494;28;20213;-74
2022/10/18 02:08:19;;;;;;;4.17;3.60;;;;;;;14.85;100.00;101100.78;5076457;28;20208;-74
2022/10/18 02:10:53;;;;;;;4.47;3.63;;;;;;;14.85;100.00;101086.88;5077723;28;20703;-74
2022/10/18 02:13:21;;;;;;;5.17;3.53;;;;;;;14.84;100.00;101092.97;5071658;28;20190;-74
2022/10/18 02:15:52;;;;;;;3.83;3.37;;;;;;;14.84;100.00;101093.84;5071588;28;20223;-73
2022/10/18 02:18:38;;;;;;;4.67;3.83;;;;;;;14.84;100.00;101079.94;5076558;28;20235;-74
2022/10/18 02:21:06;;;;;;;3.93;3.53;;;;;;;14.84;100.00;101082.56;5081940;28;20207;-75
2022/10/18 02:23:33;;;;;;;6.87;3.80;;;;;;;14.82;100.00;101071.31;5073566;28;20182;-74
2022/10/18 02:25:59;;;;;;;4.60;3.97;;;;;;;14.82;100.00;101072.16;5078143;28;20197;-75
2022/10/18 02:28:25;;;;;;;3.87;3.47;;;;;;;14.84;100.00;101075.63;5079057;28;20228;-75
2022/10/18 02:31:01;;;;;;;4.00;3.63;;;;;;;14.86;100.00;101072.97;5073512;28;20306;-74
2022/10/18 02:33:53;;;;;;;3.70;3.40;;;;;;;14.86;100.00;101072.97;5070979;28;20247;-74
2022/10/18 02:36:46;;;;;;;4.53;3.57;;;;;;;14.85;100.00;101061.72;5070164;28;20690;-74
2022/10/18 02:39:15;;;;;;;3.97;3.57;;;;;;;14.81;100.00;101062.63;5074140;28;20210;-74
2022/10/18 02:41:42;;;;;;;4.23;3.77;;;;;;;14.75;100.00;101057.50;5076135;28;20836;-75
2022/10/18 02:44:08;;;;;;;4.73;4.00;;;;;;;14.70;100.00;101062.78;5079039;28;20311;-75
2022/10/18 02:46:33;;;;;;;4.00;3.47;;;;;;;14.65;100.00;101069.78;5073083;28;20200;-75
2022/10/18 02:48:59;;;;;;;4.77;3.50;;;;;;;14.60;100.00;101059.38;5079766;28;20560;-75
2022/10/18 02:51:24;;;;;;;4.00;3.70;;;;;;;14.57;100.00;101063.78;5081775;28;20213;-75
2022/10/18 02:53:50;;;;;;;4.40;4.00;;;;;;;14.52;100.00;101071.66;5077842;28;20684;-75
2022/10/18 02:56:15;;;;;;;4.23;3.30;;;;;;;14.46;100.00;101067.41;5081289;28;20223;-75
2022/10/18 02:58:40;;;;;;;4.27;3.73;;;;;;;14.41;100.00;101076.16;5080051;28;20268;-75
2022/10/18 03:01:06;;;;;;;4.87;3.90;;;;;;;14.37;100.00;101069.25;5083967;28;20216;-75
2022/10/18 03:03:31;;;;;;;5.47;4.37;;;;;;;14.31;100.00;101068.44;5080633;28;20188;-75
2022/10/18 03:05:56;;;;;;;3.87;3.57;;;;;;;14.28;100.00;101073.72;5076755;28;20196;-75
2022/10/18 03:08:22;;;;;;;4.57;4.17;;;;;;;14.27;100.00;101076.31;5070540;28;20224;-74
2022/10/18 03:10:47;;;;;;;4.93;4.37;;;;;;;14.23;100.00;101066.81;5069253;28;20670;-75
2022/10/18 03:13:13;;;;;;;6.57;4.20;;;;;;;14.17;100.00;101065.13;5072534;28;20226;-74
2022/10/18 03:15:38;;;;;;;4.17;3.87;;;;;;;14.14;100.00;101062.59;5075061;28;20187;-74
2022/10/18 03:18:03;;;;;;;5.00;4.27;;;;;;;14.12;100.00;101082.56;5078331;28;20184;-74
2022/10/18 03:20:29;;;;;;;5.03;3.77;;;;;;;14.09;100.00;101074.78;5077730;28;20273;-74
2022/10/18 03:22:55;;;;;;;4.27;3.90;;;;;;;14.07;100.00;101079.13;5070990;28;20188;-75
2022/10/18 03:25:20;;;;;;;4.83;4.17;;;;;;;14.04;100.00;101082.66;5079344;28;21085;-76
2022/10/18 03:27:45;;;;;;;4.90;4.20;;;;;;;14.01;100.00;101088.72;5071739;28;20200;-75
2022/10/18 03:30:12;;;;;;;5.90;4.30;;;;;;;14.00;100.00;101099.16;5074291;28;20217;-74
2022/10/18 03:32:38;;;;;;;5.83;4.37;;;;;;;13.97;100.00;101101.78;5063318;28;20188;-74
2022/10/18 03:35:04;;;;;;;9.30;4.73;;;;;;;13.94;100.00;101096.59;5066918;28;20214;-75
2022/10/18 03:37:29;;;;;;;5.23;4.73;;;;;;;13.92;100.00;101096.63;5071211;28;20194;-75
2022/10/18 03:39:55;;;;;;;4.63;4.10;;;;;;;13.96;100.00;101098.34;5069802;28;20182;-75
2022/10/18 03:42:20;;;;;;;4.53;4.13;;;;;;;13.98;100.00;101098.31;5074049;28;20197;-74
2022/10/18 03:44:45;;;;;;;7.50;4.83;;;;;;;14.02;100.00;101105.22;5075843;28;20285;-74
2022/10/18 03:47:11;;;;;;;5.27;4.17;;;;;;;14.07;100.00;101105.16;5075651;28;20181;-75
2022/10/18 03:49:37;;;;;;;5.73;4.23;;;;;;;14.13;100.00;101108.56;5074003;28;20209;-75
2022/10/18 03:52:02;;;;;;;4.87;4.23;;;;;;;14.19;100.00;101105.03;5075023;28;20232;-74
2022/10/18 03:54:27;;;;;;;5.33;4.00;;;;;;;14.25;100.00;101109.31;5068831;28;21965;-74
2022/10/18 03:56:52;;;;;;;6.40;4.33;;;;;;;14.30;100.00;101116.19;5075367;28;20193;-75
2022/10/18 03:59:18;;;;;;;4.80;4.40;;;;;;;14.36;100.00;101127.41;5075196;28;20191;-74
2022/10/18 04:01:43;;;;;;;4.97;4.10;;;;;;;14.39;100.00;101125.63;5074719;28;20213;-75
2022/10/18 04:04:08;;;;;;;5.03;3.63;;;;;;;14.43;100.00;101124.72;5073022;28;20185;-74
2022/10/18 04:06:34;;;;;;;4.03;3.63;;;;;;;14.46;100.00;101126.41;5074162;28;20200;-75
2022/10/18 04:08:59;;;;;;;4.30;3.63;;;;;;;14.48;100.00;101129.88;5078063;28;20624;-75
2022/10/18 04:11:25;;;;;;;5.27;4.20;;;;;;;14.51;100.00;101134.22;5078287;28;20248;-75
2022/10/18 04:13:50;;;;;;;5.27;3.50;;;;;;;14.53;100.00;101125.47;5078371;28;20709;-75
2022/10/18 04:16:15;;;;;;;5.00;3.87;;;;;;;14.55;100.00;101118.50;5079267;28;20199;-75
2022/10/18 04:18:41;;;;;;;5.33;3.77;;;;;;;14.59;100.00;101122.81;5081190;28;20711;-75
2022/10/18 04:21:06;;;;;;;4.23;3.83;;;;;;;14.63;100.00;101126.25;5080270;28;20575;-75
2022/10/18 04:23:32;;;;;;;4.00;3.23;;;;;;;14.68;100.00;101121.84;5080170;28;20194;-72
2022/10/18 04:25:57;;;;;;;4.43;3.80;;;;;;;14.72;100.00;101127.91;5081036;28;20221;-74
2022/10/18 04:28:22;;;;;;;4.50;3.50;;;;;;;14.76;100.00;101129.56;5082744;28;20204;-74
2022/10/18 04:30:50;;;;;;;3.90;3.60;;;;;;;14.81;100.00;101126.91;5076594;28;20205;-75
2022/10/18 04:33:15;;;;;;;4.20;3.80;;;;;;;14.84;100.00;101132.06;5081152;28;20271;-74
2022/10/18 04:35:40;;;;;;;4.27;3.80;;;;;;;14.86;100.00;101130.31;5080863;28;20192;-74
2022/10/18 04:38:06;;;;;;;3.90;3.60;;;;;;;14.89;100.00;101128.53;5084495;28;20196;-74
2022/10/18 04:40:31;;;;;;;5.00;3.70;;;;;;;14.89;100.00;101128.53;5082684;28;20205;-75
2022/10/18 04:42:56;;;;;;;5.93;3.67;;;;;;;14.90;100.00;101135.44;5082375;28;20193;-74
2022/10/18 04:45:22;;;;;;;4.00;3.60;;;;;;;14.92;100.00;101125.03;5080047;28;20649;-75
2022/10/18 04:47:47;;;;;;;5.47;3.93;;;;;;;14.93;100.00;101131.97;5071643;28;20953;-74
2022/10/18 04:50:12;;;;;;;3.87;3.57;;;;;;;14.94;100.00;101126.72;5084464;28;20307;-74
2022/10/18 04:52:37;;;;;;;5.03;4.00;;;;;;;14.94;100.00;101124.13;5085680;28;20228;-75
2022/10/18 04:55:03;;;;;;;3.87;3.47;;;;;;;14.95;100.00;101130.19;5071079;28;20201;-74
2022/10/18 04:57:28;;;;;;;3.70;3.30;;;;;;;14.96;100.00;101131.06;5074657;28;20190;-74
2022/10/18 04:59:54;;;;;;;5.63;3.70;;;;;;;14.96;100.00;101131.94;5070947;28;20264;-74
2022/10/18 05:02:19;;;;;;;3.47;3.13;;;;;;;14.96;100.00;101128.44;5078307;28;20284;-73
2022/10/18 05:04:47;;;;;;;4.07;3.73;;;;;;;14.94;100.00;101137.16;5075705;28;20311;-74
2022/10/18 05:07:12;;;;;;;4.90;3.53;;;;;;;14.94;100.00;101136.31;5077116;28;20736;-73
2022/10/18 05:09:38;;;;;;;3.90;3.17;;;;;;;14.93;100.00;101134.56;5070348;28;20205;-74
2022/10/18 05:12:04;;;;;;;3.73;3.13;;;;;;;14.92;100.00;101131.09;5073543;28;20213;-74
2022/10/18 05:14:29;;;;;;;6.17;3.70;;;;;;;14.91;100.00;101123.31;5072328;28;20193;-74
2022/10/18 05:16:54;;;;;;;4.00;3.60;;;;;;;14.90;100.00;101130.25;5076601;28;20186;-75
2022/10/18 05:19:20;;;;;;;3.77;3.47;;;;;;;14.90;100.00;101129.41;5082431;28;20215;-75
2022/10/18 05:21:45;;;;;;;3.93;3.43;;;;;;;14.90;100.00;101132.84;5076106;28;21091;-74
2022/10/18 05:24:11;;;;;;;3.93;3.40;;;;;;;14.91;100.00;101126.75;5078091;28;20185;-75
2022/10/18 05:26:36;;;;;;;4.60;3.60;;;;;;;14.96;100.00;101133.66;5077846;28;20194;-74
2022/10/18 05:29:02;;;;;;;4.13;3.73;;;;;;;14.99;100.00;101137.06;5072490;28;20246;-74
2022/10/18 05:31:27;;;;;;;3.87;3.57;;;;;;;15.02;100.00;101133.59;5072911;28;20211;-74
2022/10/18 05:33:53;;;;;;;4.43;4.00;;;;;;;15.05;100.00;101130.94;5075826;28;20190;-74
2022/10/18 05:36:18;;;;;;;4.70;4.30;;;;;;;15.07;100.00;101137.84;5079408;28;20191;-74
2022/10/18 05:38:44;;;;;;;4.70;4.20;;;;;;;15.08;100.00;101136.97;5086819;28;20243;-74
2022/10/18 05:41:10;;;;;;;4.60;4.20;;;;;;;15.12;100.00;101132.56;5086157;28;20201;-74
2022/10/18 05:43:36;;;;;;;4.17;3.87;;;;;;;15.14;100.00;101130.81;5081747;28;20301;-73
2022/10/18 05:46:03;;;;;;;4.60;4.20;;;;;;;15.18;100.00;101132.50;5076857;28;20269;-74
2022/10/18 05:48:28;;;;;;;4.23;3.93;;;;;;;15.21;100.00;101124.59;5090568;28;20668;-75
2022/10/18 05:50:57;;;;;;;5.00;4.50;;;;;;;15.23;100.00;101128.03;5086820;28;20256;-74
2022/10/18 05:53:22;;;;;;;4.50;4.10;;;;;;;15.25;100.00;101120.22;5083545;28;20243;-75
2022/10/18 05:55:48;;;;;;;4.50;4.20;;;;;;;15.27;100.00;101118.47;5080471;28;20603;-74
2022/10/18 05:58:13;;;;;;;4.73;3.90;;;;;;;15.28;100.00;101119.31;5087963;28;20199;-74
2022/10/18 06:00:38;;;;;;;3.87;3.57;;;;;;;15.30;100.00;101115.78;5076846;28;20589;-74
2022/10/18 06:03:04;;;;;;;5.30;4.37;;;;;;;15.31;100.00;101130.53;5079817;28;20188;-75
2022/10/18 06:05:29;;;;;;;5.23;4.40;;;;;;;15.33;100.00;101123.56;5079218;28;20177;-75
2022/10/18 06:07:55;;;;;;;4.77;4.37;;;;;;;15.34;100.00;101124.44;5082778;28;20185;-75
2022/10/18 06:10:20;;;;;;;5.97;4.40;;;;;;;15.36;100.00;101131.34;5083510;28;20572;-75
2022/10/18 06:12:46;;;;;;;5.10;4.60;;;;;;;15.39;100.00;101135.63;5087975;28;20272;-75
2022/10/18 06:15:11;;;;;;;4.93;4.53;;;;;;;15.41;100.00;101130.41;5085093;28;20177;-75
2022/10/18 06:17:36;;;;;;;4.87;4.47;;;;;;;15.42;100.00;101127.78;5081580;28;20192;-75
2022/10/18 06:20:02;;;;;;;5.60;4.00;;;;;;;15.46;100.00;101125.97;5087291;28;20176;-75
2022/10/18 06:22:27;;;;;;;4.87;4.00;;;;;;;15.49;100.00;101132.03;5085843;28;20181;-75
2022/10/18 06:24:53;;;;;;;4.30;3.90;;;;;;;15.51;100.00;101132.84;5085024;28;20179;-75
2022/10/18 06:27:18;;;;;;;5.37;4.00;;;;;;;15.51;100.00;101143.25;5080247;28;20187;-75
2022/10/18 06:29:46;;;;;;;4.60;4.10;;;;;;;15.54;100.00;101152.81;5082072;28;20232;-75
2022/10/18 06:32:11;;;;;;;6.10;4.20;;;;;;;15.57;100.00;101147.56;5086652;28;20205;-75
2022/10/18 06:34:37;;;;;;;5.37;3.97;;;;;;;15.60;100.00;101155.31;5079365;28;20262;-75
2022/10/18 06:37:02;;;;;;;4.67;3.70;;;;;;;15.63;100.00;101160.47;5087568;28;20177;-75
2022/10/18 06:39:27;;;;;;;3.80;3.50;;;;;;;15.66;100.00;101167.38;5078179;28;20268;-75
2022/10/18 06:41:53;;;;;;;4.47;3.53;;;;;;;15.69;100.00;101159.50;5085181;28;20205;-75
2022/10/18 06:44:22;;;;;;;5.80;3.57;;;;;;;15.71;100.00;101160.34;5084730;28;20186;-75
2022/10/18 06:46:48;;;;;;;4.40;4.00;;;;;;;15.74;100.00;101188.13;5086541;28;20257;-75
2022/10/18 06:49:14;;;;;;;4.60;3.90;;;;;;;15.77;100.00;101206.38;5079290;28;20294;-74
2022/10/18 06:51:40;;;;;;;4.60;4.20;;;;;;;15.80;100.00;101203.72;5078631;28;20686;-75
2022/10/18 06:54:06;;;;;;;5.00;4.60;;;;;;;15.80;100.00;101195.88;5079639;28;20199;-75
2022/10/18 06:56:32;;;;;;;6.63;4.60;;;;;;;15.81;100.00;101192.38;5086701;28;20216;-75
2022/10/18 06:58:57;;;;;;;4.90;4.47;;;;;;;15.88;100.00;101198.41;5086273;28;20185;-75
2022/10/18 07:01:22;;;;;;;5.30;4.80;;;;;;;15.96;100.00;101201.72;5087133;28;20281;-75
2022/10/18 07:03:51;;;;;;;5.33;4.43;;;;;;;16.00;100.00;101206.91;5084136;28;20205;-75
2022/10/18 07:06:18;;;;;;;6.17;4.90;;;;;;;16.03;100.00;101197.31;5079879;28;20718;-75
2022/10/18 07:08:43;;;;;;;5.47;4.90;;;;;;;16.05;100.00;101206.81;5081683;28;20652;-75
2022/10/18 07:11:14;;;;;;;5.93;4.70;;;;;;;16.07;100.00;101217.22;5084263;28;20238;-75
2022/10/18 07:13:40;;;;;;;5.60;5.10;;;;;;;16.07;100.00;101218.09;5085091;28;20187;-76
2022/10/18 07:16:11;;;;;;;5.17;4.77;;;;;;;16.11;100.00;101216.28;5085540;28;20179;-75
2022/10/18 07:18:39;;;;;;;5.10;4.63;;;;;;;16.15;100.00;101224.03;5068243;28;20181;-75
2022/10/18 07:21:08;;;;;;;5.47;4.97;;;;;;;16.21;100.00;101233.50;5079216;28;20193;-75
2022/10/18 07:23:35;;;;;;;5.23;4.73;;;;;;;16.24;100.00;101225.63;5085888;28;20566;-75
2022/10/18 07:26:02;;;;;;;5.30;4.80;;;;;;;16.26;100.00;101226.47;5076357;28;20192;-75
2022/10/18 07:28:28;;;;;;;5.37;4.93;;;;;;;16.29;100.00;101229.03;5084425;28;20935;-75
2022/10/18 07:30:54;;;;;;;5.80;4.70;;;;;;;16.29;100.00;101236.00;5084962;28;20203;-76
2022/10/18 07:33:19;;;;;;;5.23;4.80;;;;;;;16.29;100.00;101249.06;5079177;28;20188;-75
2022/10/18 07:35:46;;;;;;;5.63;5.10;;;;;;;16.28;100.00;101255.16;5070044;28;20736;-75
2022/10/18 07:38:11;;;;;;;5.57;5.07;;;;;;;16.29;100.00;101262.09;5070057;28;20192;-75
2022/10/18 07:40:36;;;;;;;6.50;5.30;;;;;;;16.29;100.00;101265.59;5081663;28;20221;-74
2022/10/18 07:43:02;;;;;;;6.47;4.93;;;;;;;16.33;100.00;101266.41;5081990;28;20192;-75
2022/10/18 07:45:27;;;;;;;6.60;4.43;;;;;;;16.41;100.00;101266.28;5082721;28;20344;-75
2022/10/18 07:47:54;;;;;;;4.93;4.53;;;;;;;16.51;100.00;101266.97;5079308;28;20193;-75
2022/10/18 07:50:20;;;;;;;4.37;4.07;;;;;;;16.61;100.00;101268.53;5084018;28;20219;-75
2022/10/18 07:52:45;;;;;;;5.40;4.90;;;;;;;16.69;100.00;101271.00;5078285;28;20194;-75
2022/10/18 07:55:10;;;;;;;5.10;4.60;;;;;;;16.75;100.00;101278.72;5078547;28;20187;-75
2022/10/18 07:57:35;;;;;;;6.10;5.40;;;;;;;16.81;100.00;101278.59;5086555;28;20660;-75
2022/10/18 08:00:01;;;;;;;5.20;4.70;;;;;;;16.87;100.00;101278.50;5079826;28;20194;-74
2022/10/18 08:02:26;;;;;;;5.93;4.90;;;;;;;17.01;100.00;101275.66;5084337;28;20188;-76
2022/10/18 08:04:52;;;;;;;5.40;4.90;;;;;;;17.27;100.00;101266.41;5078047;28;20195;-75
2022/10/18 08:07:17;;;;;;;5.13;4.67;;;;;;;17.64;100.00;101269.94;5086680;28;20188;-73
2022/10/18 08:09:42;;;;;;;6.03;4.60;;;;;;;17.96;100.00;101268.34;5079533;28;20306;-75
2022/10/18 08:12:07;;;;;;;4.37;3.97;;;;;;;18.01;100.00;101271.72;5078419;28;20911;-75
2022/10/18 08:14:33;;;;;;;5.30;4.80;;;;;;;17.94;100.00;101270.97;5076394;28;20718;-75
2022/10/18 08:16:58;;;;;;;4.67;4.27;;;;;;;17.85;100.00;101270.38;5075607;28;20582;-76
2022/10/18 08:19:23;;;;;;;4.50;4.10;;;;;;;17.80;100.00;101266.09;5066998;28;20177;-76
2022/10/18 08:21:49;;;;;;;5.37;4.63;;;;;;;17.80;100.00;101260.84;5079008;28;20212;-76
2022/10/18 08:24:14;;;;;;;4.50;4.10;;;;;;;17.87;100.00;101263.31;5077617;28;20517;-76
2022/10/18 08:26:39;;;;;;;4.67;4.27;;;;;;;17.98;100.00;101267.44;5084583;28;20174;-75
2022/10/18 08:29:05;;;;;;;4.37;4.00;;;;;;;18.18;100.00;101267.81;5081037;28;20196;-75
2022/10/18 08:31:30;;;;;;;4.07;3.77;;;;;;;18.36;100.00;101262.13;5084334;28;20300;-76
2022/10/18 08:33:56;;;;;;;4.97;4.33;;;;;;;18.50;100.00;101261.78;5074709;28;20215;-75
2022/10/18 08:36:21;;;;;;;5.07;4.40;;;;;;;18.56;100.00;101263.38;5089319;28;20221;-76
2022/10/18 08:38:48;;;;;;;4.33;3.97;;;;;;;18.53;100.00;101264.28;5086273;28;20657;-75
2022/10/18 08:41:41;;;;;;;4.73;4.30;;;;;;;18.58;100.00;101264.19;5089979;28;20273;-76
2022/10/18 08:44:18;;;;;;;4.50;4.20;;;;;;;18.57;100.00;101270.34;5080861;28;20756;-75
2022/10/18 08:46:46;;;;;;;4.73;4.33;;;;;;;18.53;100.00;101266.91;5088567;28;20196;-76
2022/10/18 08:49:25;;;;;;;6.33;4.93;;;;;;;18.55;100.00;101272.13;5075615;28;20204;-75
2022/10/18 08:51:51;;;;;;;4.87;4.37;;;;;;;18.65;100.00;101273.59;5081808;28;20582;-75
2022/10/18 08:54:55;;;;;;;5.40;4.87;;;;;;;18.81;100.00;101281.91;5087129;28;20192;-74
2022/10/18 08:57:21;;;;;;;5.23;4.77;;;;;;;18.94;100.00;101277.22;5084215;28;20574;-75
2022/10/18 08:59:46;;;;;;;5.03;4.53;;;;;;;18.96;100.00;101279.81;5089086;28;20165;-74
2022/10/18 09:02:34;;;;;;;7.07;4.87;;;;;;;18.99;100.00;101277.94;5085233;28;21035;-76
2022/10/18 09:05:07;;;;;;;6.30;5.13;;;;;;;19.14;100.00;101283.66;5088361;28;20165;-75
2022/10/18 09:07:50;;;;;;;6.37;5.40;;;;;;;19.32;100.00;101284.88;5081236;28;20182;-75
2022/10/18 09:10:24;;;;;;;6.73;5.23;;;;;;;19.54;100.00;101286.88;5082309;28;20237;-76
2022/10/18 09:12:57;;;;;;;5.60;4.83;;;;;;;19.80;100.00;101283.44;5078390;28;20685;-75
2022/10/18 09:15:41;;;;;;;5.67;4.43;;;;;;;20.00;100.00;101287.19;5080576;28;20243;-75
2022/10/18 09:18:28;;;;;;;5.53;5.03;;;;;;;20.15;100.00;101278.81;5080377;28;20227;-76
2022/10/18 09:20:57;;;;;;;4.77;4.37;;;;;;;20.31;100.00;101281.81;5088087;28;20193;-76
2022/10/18 09:23:39;;;;;;;4.33;3.90;;;;;;;20.45;100.00;101283.94;5077466;28;20206;-76
2022/10/18 09:26:20;;;;;;;5.07;4.07;;;;;;;20.48;100.00;101288.25;5078888;28;20181;-76
2022/10/18 09:29:00;;;;;;;10.07;4.43;;;;;;;20.45;100.00;101288.34;5084675;28;20280;-76
2022/10/18 09:31:39;;;;;;;4.33;4.00;;;;;;;20.43;100.00;101291.00;5078602;28;20225;-76
2022/10/18 09:34:11;;;;;;;5.10;4.40;;;;;;;20.43;100.00;101292.81;5079858;28;20177;-72
2022/10/18 09:36:37;;;;;;;4.93;4.40;;;;;;;20.47;100.00;101294.41;5082168;28;20611;-75
2022/10/18 09:39:15;;;;;;;4.47;4.07;;;;;;;20.55;100.00;101287.13;5080281;28;20174;-76
2022/10/18 09:41:49;;;;;;;4.83;4.33;;;;;;;20.68;100.00;101287.56;5083638;28;20197;-76
2022/10/18 09:44:23;;;;;;;3.90;3.50;;;;;;;20.79;100.00;101297.72;5078796;28;20184;-75
2022/10/18 09:46:54;;;;;;;5.10;4.30;;;;;;;20.84;100.00;101298.41;5079507;28;20193;-75
2022/10/18 09:49:31;;;;;;;8.43;4.20;;;;;;;20.85;100.00;101290.47;5088603;28;20197;-75
2022/10/18 09:52:00;;;;;;;4.33;3.90;;;;;;;20.81;100.00;101287.97;5085678;28;20213;-75
2022/10/18 09:54:32;;;;;;;3.90;3.60;;;;;;;20.85;100.00;101286.97;5077503;28;20189;-76
2022/10/18 09:57:15;;;;;;;5.37;4.23;;;;;;;20.88;100.00;101294.75;5085167;28;20220;-75
2022/10/18 09:59:48;;;;;;;4.70;4.30;;;;;;;21.05;100.00;101293.28;5076838;28;20185;-76
2022/10/18 10:02:23;;;;;;;4.47;4.00;;;;;;;21.06;100.00;101293.22;5066656;28;20201;-76
2022/10/18 10:04:49;;;;;;;4.47;4.07;;;;;;;21.10;100.00;101294.81;5081452;28;20207;-75
2022/10/18 10:07:40;;;;;;;5.80;3.97;;;;;;;21.12;100.00;101294.75;5087959;28;20173;-75
2022/10/18 10:10:05;;;;;;;3.47;3.17;;;;;;;21.16;100.00;101299.00;5078137;28;20201;-76
2022/10/18 10:12:33;;;;;;;4.00;3.70;;;;;;;21.17;100.00;101292.81;5086740;28;20313;-74
2022/10/18 10:15:22;;;;;;;4.77;3.80;;;;;;;21.21;100.00;101294.44;5077611;28;20188;-76
2022/10/18 10:18:02;;;;;;;5.23;4.00;;;;;;;21.20;100.00;101287.44;5085759;28;20176;-75
2022/10/18 10:20:31;;;;;;;4.47;3.57;;;;;;;21.13;100.00;101292.09;5084905;28;20981;-75
2022/10/18 10:23:13;;;;;;;4.23;3.83;;;;;;;21.14;100.00;101293.81;5082951;28;20196;-75
2022/10/18 10:25:40;;;;;;;6.13;3.37;;;;;;;21.09;100.00;101293.09;5079665;28;20266;-75
2022/10/18 10:28:13;;;;;;;3.90;3.60;;;;;;;21.17;100.00;101295.47;5083322;28;20541;-75
2022/10/18 10:30:38;;;;;;;3.77;3.47;;;;;;;21.23;100.00;101281.19;5081376;28;20266;-76
2022/10/18 10:33:05;;;;;;;3.30;3.00;;;;;;;21.30;100.00;101291.44;5081340;28;20604;-75
2022/10/18 10:35:38;;;;;;;3.53;3.17;;;;;;;21.36;100.00;101286.88;5079646;28;20166;-73
2022/10/18 10:38:05;;;;;;;4.73;3.90;;;;;;;21.37;100.00;101285.94;5106648;28;20176;-74
2022/10/18 10:40:33;;;;;;;4.43;3.63;;;;;;;21.34;100.00;101286.06;5101123;28;20334;-76
2022/10/18 10:43:04;;;;;;;3.60;3.33;;;;;;;21.31;100.00;101287.06;5090546;28;20185;-76
2022/10/18 10:45:34;;;;;;;3.53;3.07;;;;;;;21.34;100.00;101286.91;5085432;28;20174;-74
2022/10/18 10:48:27;;;;;;;3.60;3.30;;;;;;;21.26;100.00;101292.47;5087814;28;20183;-75
2022/10/18 10:50:59;;;;;;;4.87;3.57;;;;;;;21.26;100.00;101289.84;5080623;28;20302;-75
2022/10/18 10:53:35;;;;;;;4.03;3.60;;;;;;;21.28;100.00;101293.28;5088059;28;20188;-75
2022/10/18 10:56:01;;;;;;;3.37;3.07;;;;;;;21.28;100.00;101297.69;5085599;28;20184;-75
2022/10/18 10:58:34;;;;;;;3.60;3.30;;;;;;;21.21;100.00;101294.44;5086966;28;20180;-76
2022/10/18 11:01:20;;;;;;;4.47;3.40;;;;;;;21.23;100.00;101297.00;5084254;28;20249;-75
2022/10/18 11:03:50;;;;;;;3.23;3.03;;;;;;;21.31;100.00;101297.59;5074437;28;20189;-75
2022/10/18 11:06:50;;;;;;;3.40;3.10;;;;;;;21.39;100.00;101300.75;5084594;28;20192;-76
2022/10/18 11:09:28;;;;;;;3.33;3.10;;;;;;;21.37;100.00;101304.38;5055173;28;20263;-76
2022/10/18 11:12:07;;;;;;;4.03;3.67;;;;;;;21.30;100.00;101301.97;5073053;28;20277;-75
2022/10/18 11:14:38;;;;;;;5.20;3.30;;;;;;;21.27;100.00;101299.44;5080612;28;20234;-76
2022/10/18 11:17:24;;;;;;;3.30;3.00;;;;;;;21.24;100.00;101299.59;5074201;28;20232;-76
2022/10/18 11:20:08;;;;;;;3.60;3.30;;;;;;;21.23;100.00;101300.50;5085442;28;20263;-75
2022/10/18 11:22:57;;;;;;;3.60;3.30;;;;;;;21.32;100.00;101301.94;5087523;28;20633;-76
2022/10/18 11:25:33;;;;;;;3.30;3.03;;;;;;;21.40;100.00;101291.09;5078498;28;20189;-75
2022/10/18 11:28:14;;;;;;;3.53;2.77;;;;;;;21.56;100.00;101296.63;5078327;28;20225;-75